createdAt,value
2019-03-05T00:04:56.057Z,98624.62
2019-03-05T00:10:00.324Z,98624.13
2019-03-05T00:15:04.848Z,98626.82
2019-03-05T00:20:11.029Z,98627.33
2019-03-05T00:25:17.489Z,98624.62
2019-03-05T00:30:46.575Z,98624.62
2019-03-05T00:36:40.995Z,98620.09
2019-03-05T00:41:58.593Z,98621.72
2019-03-05T00:47:18.906Z,98605.66
2019-03-05T00:52:33.462Z,98599.34
2019-03-05T00:57:49.986Z,98591.13
2019-03-05T01:03:13.370Z,98605.69
2019-03-05T01:08:19.592Z,98608.13
2019-03-05T01:13:23.448Z,98620.66
2019-03-05T01:18:27.670Z,98633.05
2019-03-05T01:23:31.732Z,98633.05
2019-03-05T01:28:35.838Z,98622.15
2019-03-05T01:33:49.640Z,98622.15
2019-03-05T01:39:02.587Z,98618.34
2019-03-05T01:44:06.740Z,98621.73
2019-03-05T01:49:10.857Z,98621.39
2019-03-05T01:54:14.985Z,98626.58
2019-03-05T01:59:19.039Z,98626.58
2019-03-05T02:04:23.245Z,98630.62
2019-03-05T02:09:27.565Z,98621.41
2019-03-05T02:14:31.691Z,98631.77
2019-03-05T02:19:37.927Z,98631.77
2019-03-05T02:25:19.340Z,98636.50
2019-03-05T02:30:37.491Z,98636.50
2019-03-05T02:36:13.094Z,98651.01
2019-03-05T02:41:40.974Z,98657.88
2019-03-05T02:47:00.364Z,98653.27
2019-03-05T02:52:45.041Z,98653.27
2019-03-05T02:57:47.594Z,98652.98
2019-03-05T03:02:58.776Z,98648.95
2019-03-05T03:08:02.994Z,98662.40
2019-03-05T03:13:07.186Z,98667.92
2019-03-05T03:18:11.355Z,98681.37
2019-03-05T03:23:15.460Z,98681.37
2019-03-05T03:28:19.494Z,98693.23
2019-03-05T03:33:23.533Z,98695.42
2019-03-05T03:38:27.535Z,98695.42
2019-03-05T03:43:31.577Z,98683.13
2019-03-05T03:48:35.606Z,98683.63
2019-03-05T03:53:39.672Z,98694.02
2019-03-05T03:58:43.761Z,98692.18
2019-03-05T04:03:47.963Z,98699.89
2019-03-05T04:08:52.152Z,98708.92
2019-03-05T04:13:59.528Z,98710.70
2019-03-05T04:19:03.562Z,98717.89
2019-03-05T04:24:07.588Z,98720.87
2019-03-05T04:29:11.721Z,98724.20
2019-03-05T04:34:15.863Z,98728.70
2019-03-05T04:39:19.958Z,98728.70
2019-03-05T04:44:32.324Z,98731.03
2019-03-05T04:49:44.018Z,98744.38
2019-03-05T04:54:48.060Z,98751.70
2019-03-05T04:59:52.089Z,98742.45
2019-03-05T05:04:56.218Z,98752.49
2019-03-05T05:10:00.337Z,98752.49
2019-03-05T05:15:05.618Z,98760.17
2019-03-05T05:20:09.829Z,98755.80
2019-03-05T05:25:13.870Z,98760.81
2019-03-05T05:30:38.024Z,98769.62
2019-03-05T05:35:42.248Z,98769.62
2019-03-05T05:40:46.726Z,98770.77
2019-03-05T05:45:51.980Z,98772.36
2019-03-05T05:50:56.106Z,98786.92
2019-03-05T05:56:00.201Z,98799.16
2019-03-05T06:01:07.878Z,98793.19
2019-03-05T06:06:11.917Z,98799.91
2019-03-05T06:11:16.048Z,98811.64
2019-03-05T06:16:20.130Z,98806.77
2019-03-05T06:21:24.149Z,98806.77
2019-03-05T06:26:28.171Z,98814.23
2019-03-05T06:31:32.261Z,98813.63
2019-03-05T06:36:55.918Z,98813.63
2019-03-05T06:41:59.975Z,98832.67
2019-03-05T06:47:04.112Z,98829.39
2019-03-05T06:52:08.205Z,98839.78
2019-03-05T06:57:12.268Z,98839.78
2019-03-05T07:02:16.386Z,98847.73
2019-03-05T07:07:20.435Z,98841.41
2019-03-05T07:12:56.722Z,98845.55
2019-03-05T07:18:06.026Z,98845.55
2019-03-05T07:23:30.538Z,98864.13
2019-03-05T07:28:34.686Z,98872.05
2019-03-05T07:33:38.795Z,98865.47
2019-03-05T07:38:42.895Z,98865.47
2019-03-05T07:43:46.960Z,98874.41
2019-03-05T07:48:51.000Z,98878.79
2019-03-05T07:53:55.015Z,98878.79
2019-03-05T07:58:59.036Z,98889.05
2019-03-05T08:04:03.491Z,98907.16
2019-03-05T08:09:35.572Z,98913.83
2019-03-05T08:15:03.394Z,98908.77
2019-03-05T08:20:09.626Z,98921.61
2019-03-05T08:25:14.182Z,98921.61
2019-03-05T08:30:18.613Z,98937.55
2019-03-05T08:35:22.845Z,98945.92
2019-03-05T08:40:27.298Z,98948.78
2019-03-05T08:45:31.594Z,98949.13
2019-03-05T08:50:35.957Z,98952.31
2019-03-05T08:55:40.307Z,98954.30
2019-03-05T09:00:44.549Z,98960.06
2019-03-05T09:05:48.817Z,98949.21
2019-03-05T09:10:54.209Z,98958.02
2019-03-05T09:15:58.523Z,98954.94
2019-03-05T09:21:02.833Z,98954.94
2019-03-05T09:26:07.213Z,98959.01
2019-03-05T09:31:11.506Z,98961.41
2019-03-05T09:36:15.735Z,98950.09
2019-03-05T09:41:20.057Z,98950.09
2019-03-05T09:46:24.244Z,98961.32
2019-03-05T09:51:28.489Z,98967.69
2019-03-05T09:56:32.683Z,98958.20
2019-03-05T10:01:37.046Z,98976.70
2019-03-05T10:06:41.333Z,98967.05
2019-03-05T10:11:45.580Z,98967.05
2019-03-05T10:16:49.790Z,98967.13
2019-03-05T10:21:54.073Z,98971.05
2019-03-05T10:26:58.410Z,98968.37
2019-03-05T10:32:02.681Z,98962.39
2019-03-05T10:37:12.831Z,98969.60
2019-03-05T10:42:12.937Z,98964.61
2019-03-05T10:47:17.098Z,98969.63
2019-03-05T10:52:21.237Z,98971.33
2019-03-05T10:57:25.524Z,98963.05
2019-03-05T11:02:29.767Z,98960.75
2019-03-05T11:07:33.988Z,98953.30
2019-03-05T11:12:39.296Z,98953.30
2019-03-05T11:17:43.528Z,98981.63
2019-03-05T11:22:48.237Z,98987.75
2019-03-05T11:27:52.595Z,98992.98
2019-03-05T11:32:56.916Z,98993.70
2019-03-05T11:38:01.151Z,98993.70
2019-03-05T11:43:13.360Z,98996.88
2019-03-05T11:48:17.782Z,98996.88
2019-03-05T11:53:21.950Z,99010.17
2019-03-05T11:58:26.270Z,99014.94
2019-03-05T12:03:30.637Z,99004.55
2019-03-05T12:08:34.874Z,99004.55
2019-03-05T12:13:39.362Z,99015.92
2019-03-05T12:18:43.513Z,99017.63
2019-03-05T12:23:48.381Z,99013.59
2019-03-05T12:28:52.804Z,99013.59
2019-03-05T12:33:57.004Z,99008.33
2019-03-05T12:39:01.259Z,99005.92
2019-03-05T12:44:05.888Z,99032.13
2019-03-05T12:49:10.512Z,99046.95
2019-03-05T12:54:15.067Z,99053.91
2019-03-05T12:59:19.662Z,99053.91
2019-03-05T13:04:23.769Z,99038.56
2019-03-05T13:09:27.913Z,99029.10
2019-03-05T13:14:32.327Z,99041.13
2019-03-05T13:19:38.702Z,99059.01
2019-03-05T13:24:42.545Z,99066.00
2019-03-05T13:29:46.810Z,99070.84
2019-03-05T13:34:51.321Z,99066.00
2019-03-05T13:39:58.200Z,99052.91
2019-03-05T13:45:05.322Z,99050.86
2019-03-05T13:50:30.152Z,99039.47
2019-03-05T13:56:30.683Z,99046.65
2019-03-05T14:01:35.020Z,99031.11
2019-03-05T14:06:49.640Z,99031.11
2019-03-05T14:11:54.312Z,99047.04
2019-03-05T14:17:31.332Z,99048.84
2019-03-05T14:22:35.782Z,99053.11
2019-03-05T14:27:45.299Z,99060.82
2019-03-05T14:32:49.694Z,99064.88
2019-03-05T14:37:53.849Z,99067.95
2019-03-05T14:42:58.448Z,99078.06
2019-03-05T14:48:04.349Z,99078.86
2019-03-05T14:53:09.420Z,99075.45
2019-03-05T14:58:23.041Z,99075.45
2019-03-05T15:03:27.383Z,99055.36
2019-03-05T15:08:31.856Z,99085.38
2019-03-05T15:24:40.481Z,99105.58
2019-03-05T15:29:45.504Z,99100.22
2019-03-05T16:23:33.144Z,99176.32
2019-03-05T16:28:39.150Z,99184.74
2019-03-05T16:33:50.673Z,99184.74
2019-03-05T16:39:03.248Z,99202.47
2019-03-05T16:44:16.945Z,99211.26
2019-03-05T16:49:40.049Z,99211.26
2019-03-05T16:55:03.298Z,99236.92
2019-03-05T17:00:24.308Z,99245.95
2019-03-05T17:05:38.119Z,99245.95
2019-03-05T17:10:51.900Z,99256.13
2019-03-05T17:15:56.210Z,99274.51
2019-03-05T17:21:00.780Z,99283.59
2019-03-05T17:26:05.675Z,99283.59
2019-03-05T17:31:10.128Z,99306.45
2019-03-05T17:36:16.474Z,99300.11
2019-03-05T17:41:22.320Z,99300.11
2019-03-05T17:46:31.883Z,99334.38
2019-03-05T17:51:38.563Z,99346.06
2019-03-05T17:56:47.689Z,99358.88
2019-03-05T18:01:52.396Z,99365.73
2019-03-05T18:06:56.885Z,99365.73
2019-03-05T18:12:01.164Z,99379.05
2019-03-05T18:17:05.637Z,99371.86
2019-03-05T18:22:10.025Z,99399.36
2019-03-05T18:27:14.403Z,99392.40
2019-03-05T18:32:18.793Z,99413.34
2019-03-05T18:37:23.025Z,99412.48
2019-03-05T19:04:44.347Z,99471.14
2019-03-05T19:09:48.530Z,99485.51
2019-03-05T19:57:32.185Z,99553.13
2019-03-05T20:08:05.822Z,99567.46
2019-03-05T20:13:10.467Z,99569.48
2019-03-05T20:18:14.852Z,99573.84
2019-03-05T20:23:24.718Z,99575.63
2019-03-05T20:28:29.154Z,99575.41
2019-03-05T20:33:33.677Z,99575.41
2019-03-05T20:38:39.934Z,99574.03
2019-03-05T20:43:44.476Z,99595.09
2019-03-05T20:48:48.995Z,99595.09
2019-03-05T20:53:53.392Z,99610.05
2019-03-05T20:58:58.150Z,99618.50
2019-03-05T21:04:13.070Z,99624.16
2019-03-05T21:09:24.596Z,99630.05
2019-03-05T21:14:28.817Z,99621.21
2019-03-05T21:19:33.276Z,99621.21
2019-03-05T21:24:37.506Z,99645.71
2019-03-05T21:29:41.693Z,99638.00
2019-03-05T21:34:47.037Z,99663.95
2019-03-05T21:39:51.525Z,99663.95
2019-03-05T21:44:55.639Z,99672.89
2019-03-05T21:49:59.802Z,99674.86
2019-03-05T21:55:04.237Z,99683.08
2019-03-05T22:00:12.405Z,99689.81
2019-03-05T22:05:16.819Z,99695.80
2019-03-05T22:10:21.207Z,99701.17
2019-03-05T22:15:25.653Z,99689.19
2019-03-05T22:20:29.739Z,99689.19
2019-03-05T22:25:34.217Z,99718.69
2019-03-05T22:30:38.510Z,99718.69
2019-03-05T22:35:43.090Z,99727.02
2019-03-05T22:40:47.231Z,99735.33
2019-03-05T22:45:51.842Z,99743.91
2019-03-05T22:50:56.044Z,99743.41
2019-03-05T22:56:00.555Z,99743.41
2019-03-05T23:01:12.016Z,99746.11
2019-03-05T23:06:16.659Z,99757.50
2019-03-05T23:11:21.055Z,99759.83
2019-03-05T23:16:25.311Z,99765.22
2019-03-05T23:21:29.673Z,99770.70
2019-03-05T23:26:34.036Z,99773.64
2019-03-05T23:31:38.530Z,99773.77
2019-03-05T23:36:42.631Z,99769.72
2019-03-05T23:41:46.748Z,99759.38
2019-03-05T23:46:50.797Z,99775.45
2019-03-05T23:51:54.846Z,99772.25
2019-03-05T23:56:59.067Z,99772.25
